Latest Weather Observations for Ocean Reef

IDW60801

Issued at 6:02 pm WST Tuesday 28 April 2015 (issued every 30 minutes, with the page automatically refreshed every 10 minutes)

About weather observations | Map of weather stations | Latest weather observations for WA | Other Formats
Station Details ID: 009214 Name: OCEAN REEF Lat: -31.76 Lon: 115.73 Height: 10.0 m
Data from the previous 72 hours. | See also: Recent months for locations in Western Australia
Date/Time
WST
Temp
°C
App
Temp
°C
Dew
Point
Rel
Hum
%
Delta-T
°C
Wind Press
QNH
hPa
Press
MSL
hPa
Rain
since 9 am
mm
Dir
 
Spd
km/h
Gust
km/h
Spd
kts
Gust
kts
28/06:00pm - - - - - ENE 13 13 7 7 - - -
28/05:30pm - - - - - ENE 11 15 6 8 - - -
28/05:00pm - - - - - ENE 7 9 4 5 - - -
28/04:30pm - - - - - NE 7 9 4 5 - - -
28/04:00pm - - - - - NNE 7 11 4 6 - - -
28/03:30pm - - - - - N 11 15 6 8 - - -
28/03:00pm - - - - - NNE 9 17 5 9 - - -
28/02:30pm - - - - - NNE 13 22 7 12 - - -
28/02:00pm - - - - - NNE 17 26 9 14 - - -
28/01:30pm - - - - - NNE 17 26 9 14 - - -
28/01:00pm - - - - - NE 17 24 9 13 - - -
28/12:30pm - - - - - NNE 19 32 10 17 - - -
28/12:00pm - - - - - NE 26 39 14 21 - - -
28/11:30am - - - - - NE 28 43 15 23 - - -
28/11:00am - - - - - NE 28 44 15 24 - - -
28/10:31am - - - - - NE 28 46 15 25 - - -
28/10:30am - - - - - NE 30 46 16 25 - - -
28/10:00am - - - - - NE 28 37 15 20 - - -
28/09:30am - - - - - NE 32 41 17 22 - - -
28/09:00am - - - - - NE 28 43 15 23 - - -
28/08:30am - - - - - NE 32 44 17 24 - - -
28/08:00am - - - - - NE 32 46 17 25 - - -
28/07:30am - - - - - NE 28 39 15 21 - - -
28/07:00am - - - - - NE 28 37 15 20 - - -
28/06:30am - - - - - ENE 28 35 15 19 - - -
28/06:00am - - - - - NE 28 37 15 20 - - -
28/05:30am - - - - - ENE 30 39 16 21 - - -
28/05:00am - - - - - ENE 26 35 14 19 - - -
28/04:30am - - - - - ENE 24 33 13 18 - - -
28/04:00am - - - - - ENE 24 32 13 17 - - -
28/03:30am - - - - - ENE 26 33 14 18 - - -
28/03:00am - - - - - NE 24 32 13 17 - - -
28/02:30am - - - - - ENE 26 33 14 18 - - -
28/02:00am - - - - - ENE 26 37 14 20 - - -
28/01:30am - - - - - ENE 22 33 12 18 - - -
28/01:00am - - - - - ENE 24 32 13 17 - - -
28/12:30am - - - - - ENE 24 32 13 17 - - -
28/12:00am - - - - - ENE 24 33 13 18 - - -
 
Date/Time
WST
Temp
°C
App
Temp
°C
Dew
Point
Rel
Hum
%
Delta-T
°C
Wind Press
QNH
hPa
Press
MSL
hPa
Rain
since 9 am
mm
Dir
 
Spd
km/h
Gust
km/h
Spd
kts
Gust
kts
27/11:30pm - - - - - ENE 22 32 12 17 - - -
27/11:00pm - - - - - ENE 22 28 12 15 - - -
27/10:30pm - - - - - ENE 17 24 9 13 - - -
27/10:00pm - - - - - E 15 19 8 10 - - -
27/09:30pm - - - - - E 13 17 7 9 - - -
27/09:00pm - - - - - E 13 15 7 8 - - -
27/08:30pm - - - - - E 13 17 7 9 - - -
27/08:00pm - - - - - E 13 15 7 8 - - -
27/07:30pm - - - - - E 13 19 7 10 - - -
27/07:00pm - - - - - E 13 15 7 8 - - -
27/06:30pm - - - - - E 9 13 5 7 - - -
27/06:00pm - - - - - E 11 15 6 8 - - -
27/05:30pm - - - - - ENE 11 19 6 10 - - -
27/05:00pm - - - - - ENE 13 20 7 11 - - -
27/04:30pm - - - - - ENE 15 26 8 14 - - -
27/04:00pm - - - - - ENE 19 30 10 16 - - -
27/03:30pm - - - - - NE 19 30 10 16 - - -
27/03:00pm - - - - - ENE 19 30 10 16 - - -
27/02:30pm - - - - - ENE 20 33 11 18 - - -
27/02:00pm - - - - - ENE 20 32 11 17 - - -
27/01:30pm - - - - - ENE 17 28 9 15 - - -
27/01:00pm - - - - - NE 19 32 10 17 - - -
27/12:30pm - - - - - ENE 20 28 11 15 - - -
27/12:00pm - - - - - ENE 24 35 13 19 - - -
27/11:30am - - - - - NE 28 39 15 21 - - -
27/11:00am - - - - - NE 28 39 15 21 - - -
27/10:30am - - - - - NE 28 39 15 21 - - -
27/10:00am - - - - - ENE 26 39 14 21 - - -
27/09:30am - - - - - NE 28 48 15 26 - - -
27/09:21am - - - - - ENE 28 48 15 26 - - -
27/09:00am - - - - - ENE 26 37 14 20 - - -
27/08:30am - - - - - ENE 26 37 14 20 - - -
27/08:00am - - - - - ENE 24 35 13 19 - - -
27/07:30am - - - - - ENE 22 33 12 18 - - -
27/07:00am - - - - - ENE 20 30 11 16 - - -
27/06:30am - - - - - ENE 20 26 11 14 - - -
27/06:00am - - - - - ENE 20 28 11 15 - - -
27/05:30am - - - - - ENE 20 28 11 15 - - -
27/05:00am - - - - - ENE 22 33 12 18 - - -
27/04:30am - - - - - ENE 24 33 13 18 - - -
27/04:00am - - - - - ENE 22 32 12 17 - - -
27/03:30am - - - - - ENE 22 32 12 17 - - -
27/03:00am - - - - - ENE 22 30 12 16 - - -
27/02:30am - - - - - ENE 20 26 11 14 - - -
27/02:00am - - - - - E 17 24 9 13 - - -
27/01:30am - - - - - E 15 24 8 13 - - -
27/01:00am - - - - - E 17 22 9 12 - - -
27/12:30am - - - - - E 17 26 9 14 - - -
27/12:00am - - - - - E 17 24 9 13 - - -
 
Date/Time
WST
Temp
°C
App
Temp
°C
Dew
Point
Rel
Hum
%
Delta-T
°C
Wind Press
QNH
hPa
Press
MSL
hPa
Rain
since 9 am
mm
Dir
 
Spd
km/h
Gust
km/h
Spd
kts
Gust
kts
26/11:30pm - - - - - E 17 24 9 13 - - -
26/11:00pm - - - - - E 13 17 7 9 - - -
26/10:30pm - - - - - E 13 17 7 9 - - -
26/10:00pm - - - - - E 13 17 7 9 - - -
26/09:30pm - - - - - E 11 15 6 8 - - -
26/09:00pm - - - - - E 11 15 6 8 - - -
26/08:30pm - - - - - ESE 11 15 6 8 - - -
26/08:00pm - - - - - E 13 19 7 10 - - -
26/07:30pm - - - - - ESE 13 19 7 10 - - -
26/07:00pm - - - - - ESE 13 17 7 9 - - -
26/06:30pm - - - - - ESE 13 19 7 10 - - -
26/06:00pm - - - - - E 15 22 8 12 - - -
26/05:30pm - - - - - E 15 30 8 16 - - -
26/05:00pm - - - - - E 19 30 10 16 - - -
26/04:30pm - - - - - E 20 32 11 17 - - -
26/04:00pm - - - - - E 20 30 11 16 - - -
26/03:30pm - - - - - ENE 17 32 9 17 - - -
26/03:00pm - - - - - E 19 30 10 16 - - -
26/02:30pm - - - - - ENE 19 33 10 18 - - -
26/02:00pm - - - - - ENE 22 33 12 18 - - -
26/01:30pm - - - - - NE 17 32 9 17 - - -
26/01:00pm - - - - - ENE 20 30 11 16 - - -
26/12:30pm - - - - - ENE 20 33 11 18 - - -
26/12:00pm - - - - - NE 19 32 10 17 - - -
26/11:30am - - - - - NE 22 32 12 17 - - -
26/11:00am - - - - - ENE 19 32 10 17 - - -
26/10:30am - - - - - ENE 20 28 11 15 - - -
26/10:00am - - - - - ENE 28 37 15 20 - - -
26/09:30am - - - - - ENE 28 39 15 21 - - -
26/09:00am - - - - - ENE 22 33 12 18 - - -
26/08:30am - - - - - ENE 20 35 11 19 - - -
26/08:00am - - - - - E 22 33 12 18 - - -
26/07:30am - - - - - E 20 30 11 16 - - -
26/07:00am - - - - - E 22 33 12 18 - - -
26/06:30am - - - - - E 20 32 11 17 - - -
26/06:00am - - - - - E 20 30 11 16 - - -
26/05:30am - - - - - E 22 32 12 17 - - -
26/05:00am - - - - - E 20 30 11 16 - - -
26/04:30am - - - - - E 19 26 10 14 - - -
26/04:00am - - - - - E 17 24 9 13 - - -
26/03:30am - - - - - E 17 24 9 13 - - -
26/03:00am - - - - - E 17 24 9 13 - - -
26/02:30am - - - - - E 20 30 11 16 - - -
26/02:00am - - - - - E 19 30 10 16 - - -
26/01:30am - - - - - E 13 19 7 10 - - -
26/01:00am - - - - - E 13 15 7 8 - - -
26/12:30am - - - - - E 11 15 6 8 - - -
26/12:00am - - - - - ESE 13 15 7 8 - - -
 
Date/Time
WST
Temp
°C
App
Temp
°C
Dew
Point
Rel
Hum
%
Delta-T
°C
Wind Press
QNH
hPa
Press
MSL
hPa
Rain
since 9 am
mm
Dir
 
Spd
km/h
Gust
km/h
Spd
kts
Gust
kts
25/11:30pm - - - - - E 9 13 5 7 - - -
25/11:00pm - - - - - ESE 13 15 7 8 - - -
25/10:30pm - - - - - ESE 9 13 5 7 - - -
25/10:00pm - - - - - ESE 11 13 6 7 - - -
25/09:30pm - - - - - ESE 13 15 7 8 - - -
25/09:00pm - - - - - SE 13 15 7 8 - - -
25/08:30pm - - - - - ESE 13 15 7 8 - - -
25/08:00pm - - - - - ESE 13 15 7 8 - - -
25/07:30pm - - - - - SE 11 13 6 7 - - -
25/07:00pm - - - - - ESE 13 17 7 9 - - -
25/06:30pm - - - - - ESE 13 17 7 9 - - -

Other Formats:

Comma delimited format used in spreadsheet applications
http://www.bom.gov.au/fwo/IDW60801/IDW60801.94607.axf

JavaScript Object Notation format (JSON) in row-major order
http://www.bom.gov.au/fwo/IDW60801/IDW60801.94607.json